Time;durP1;ratioP1;P1;durP2;ratioP2;P2;SDS_P1;SDS_P2;PMS_P1;PMS_P2;Temp;Humidity;BMP_temperature;BMP_pressure;BME280_temperature;BME280_humidity;BME280_pressure;Samples;Min_cycle;Max_cycle;Signal;HPM_P1;HPM_P2
2022/12/19 00:00:32;;;;;;;26.03;10.47;;;;;;;-6.47;100.00;102271.13;4981834;28;20461;-70
2022/12/19 00:02:58;;;;;;;19.70;9.70;;;;;;;-6.51;100.00;102259.88;4985655;28;20511;-70
2022/12/19 00:05:24;;;;;;;19.83;9.93;;;;;;;-6.56;100.00;102263.75;4988165;28;20483;-71
2022/12/19 00:07:53;;;;;;;24.97;11.73;;;;;;;-6.60;100.00;102261.75;4979514;28;21092;-69
2022/12/19 00:10:19;;;;;;;23.80;10.87;;;;;;;-6.64;100.00;102264.00;4988236;28;20452;-70
2022/12/19 00:12:46;;;;;;;25.00;11.87;;;;;;;-6.67;100.00;102250.28;4986498;28;20464;-70
2022/12/19 00:15:13;;;;;;;22.07;10.93;;;;;;;-6.71;100.00;102248.31;4989218;28;20826;-70
2022/12/19 00:17:39;;;;;;;18.27;10.13;;;;;;;-6.73;100.00;102228.72;4986543;28;20852;-69
2022/12/19 00:20:07;;;;;;;22.10;10.67;;;;;;;-6.75;100.00;102222.66;4984865;28;20474;-71
2022/12/19 00:22:33;;;;;;;28.07;10.87;;;;;;;-6.79;100.00;102197.81;4985195;28;20818;-71
2022/12/19 00:25:02;;;;;;;18.53;10.40;;;;;;;-6.83;100.00;102193.31;4978992;28;20453;-70
2022/12/19 00:27:28;;;;;;;21.30;11.43;;;;;;;-6.88;100.00;102193.91;4986621;28;20487;-71
2022/12/19 00:29:55;;;;;;;31.13;11.87;;;;;;;-6.89;100.00;102189.59;4988048;28;21004;-70
2022/12/19 00:32:22;;;;;;;28.97;12.17;;;;;;;-6.89;100.00;102193.78;4996163;28;20495;-71
2022/12/19 00:34:48;;;;;;;33.70;13.57;;;;;;;-6.91;100.00;102182.63;4983913;28;20481;-71
2022/12/19 00:37:14;;;;;;;34.10;14.37;;;;;;;-6.93;100.00;102179.09;4983095;28;20487;-71
2022/12/19 00:39:43;;;;;;;22.87;10.97;;;;;;;-6.95;100.00;102152.75;4986414;28;20567;-70
2022/12/19 00:42:10;;;;;;;25.20;12.07;;;;;;;-6.94;100.00;102157.06;4989002;28;20956;-70
2022/12/19 00:44:37;;;;;;;26.90;12.40;;;;;;;-6.93;100.00;102158.81;4988499;28;20466;-70
2022/12/19 00:47:03;;;;;;;26.47;12.17;;;;;;;-6.96;100.00;102151.03;4986038;28;20586;-70
2022/12/19 00:49:30;;;;;;;31.20;13.90;;;;;;;-6.98;100.00;102139.88;4986866;28;20984;-70
2022/12/19 00:51:58;;;;;;;25.00;11.83;;;;;;;-6.98;100.00;102125.56;4988595;28;20515;-70
2022/12/19 00:54:25;;;;;;;21.37;10.87;;;;;;;-6.96;100.00;102125.66;4987428;28;20462;-70
2022/12/19 00:56:51;;;;;;;27.03;12.83;;;;;;;-6.99;100.00;102125.44;4987929;28;20487;-70
2022/12/19 00:59:19;;;;;;;24.93;11.93;;;;;;;-6.98;100.00;102120.47;4991160;28;20545;-69
2022/12/19 01:01:45;;;;;;;27.97;11.43;;;;;;;-6.99;100.00;102121.25;4992895;28;20959;-70
2022/12/19 01:04:14;;;;;;;25.53;10.97;;;;;;;-6.99;100.00;102128.84;4982943;28;20440;-70
2022/12/19 01:06:42;;;;;;;24.57;11.70;;;;;;;-6.98;100.00;102144.94;4979272;28;20873;-71
2022/12/19 01:09:09;;;;;;;23.00;11.27;;;;;;;-6.99;100.00;102154.22;5000487;28;21058;-70
2022/12/19 01:14:20;;;;;;;23.70;11.20;;;;;;;-7.02;100.00;102143.84;4982320;28;20464;-70
2022/12/19 01:16:47;;;;;;;19.83;10.27;;;;;;;-7.04;100.00;102145.41;4980975;28;20582;-70
2022/12/19 01:19:13;;;;;;;25.50;10.73;;;;;;;-7.08;100.00;102156.97;4996088;28;20469;-71
2022/12/19 01:21:39;;;;;;;23.87;10.73;;;;;;;-7.10;100.00;102158.53;4993880;28;20463;-70
2022/12/19 01:24:06;;;;;;;20.70;11.10;;;;;;;-7.16;100.00;102147.94;4985415;28;21109;-71
2022/12/19 01:26:33;;;;;;;25.70;10.87;;;;;;;-7.14;100.00;102131.22;4988736;28;20479;-71
2022/12/19 01:28:59;;;;;;;28.43;11.10;;;;;;;-7.25;100.00;102137.19;4987632;28;20761;-70
2022/12/19 01:31:28;;;;;;;24.80;11.20;;;;;;;-7.24;100.00;102128.81;4987353;28;20452;-70
2022/12/19 01:33:55;;;;;;;20.63;10.00;;;;;;;-7.23;100.00;102117.88;4988215;28;20503;-70
2022/12/19 01:36:23;;;;;;;22.67;9.97;;;;;;;-7.20;100.00;102127.38;4984634;28;20487;-71
2022/12/19 01:38:49;;;;;;;18.60;9.10;;;;;;;-7.15;100.00;102124.38;4988240;28;20471;-70
2022/12/19 01:41:16;;;;;;;23.57;8.17;;;;;;;-7.08;100.00;102118.94;4982574;28;20460;-71
2022/12/19 01:43:58;;;;;;;21.30;8.53;;;;;;;-6.97;100.00;102113.75;4985513;28;20456;-68
2022/12/19 01:46:33;;;;;;;18.03;8.47;;;;;;;-6.83;100.00;102112.16;4983682;28;20474;-69
2022/12/19 01:49:00;;;;;;;19.67;8.33;;;;;;;-6.70;100.00;102097.88;4986022;28;20463;-70
2022/12/19 01:51:34;;;;;;;16.40;7.90;;;;;;;-6.64;100.00;102099.06;4979367;28;20833;-71
2022/12/19 01:54:06;;;;;;;15.73;7.47;;;;;;;-6.47;100.00;102099.41;4983316;28;20463;-70
2022/12/19 01:56:38;;;;;;;21.20;9.10;;;;;;;-6.42;100.00;102084.50;4982064;28;20484;-69
2022/12/19 01:59:14;;;;;;;20.43;8.97;;;;;;;-6.21;100.00;102096.81;4988854;28;20558;-69
2022/12/19 02:01:43;;;;;;;11.13;6.40;;;;;;;-6.18;100.00;102086.88;4984117;28;20534;-70
2022/12/19 02:04:13;;;;;;;16.80;7.83;;;;;;;-6.16;100.00;102080.22;4978721;28;20459;-70
2022/12/19 02:06:41;;;;;;;15.07;8.90;;;;;;;-6.17;100.00;102069.19;4985196;28;20562;-69
2022/12/19 02:09:08;;;;;;;17.17;8.77;;;;;;;-6.12;100.00;102070.38;4985577;28;20452;-70
2022/12/19 02:11:35;;;;;;;22.07;8.80;;;;;;;-6.04;100.00;102062.38;4982648;28;20475;-70
2022/12/19 02:14:01;;;;;;;18.73;8.50;;;;;;;-5.97;100.00;102040.00;4988745;28;20451;-68
2022/12/19 02:16:40;;;;;;;14.43;7.53;;;;;;;-5.91;100.00;102049.63;4982449;28;20562;-70
2022/12/19 02:19:30;;;;;;;16.37;7.33;;;;;;;-5.92;100.00;102046.22;5001479;28;20547;-71
2022/12/19 02:22:02;;;;;;;19.90;8.63;;;;;;;-5.83;100.00;102050.13;4986833;28;20540;-70
2022/12/19 02:25:01;;;;;;;22.60;9.67;;;;;;;-5.81;100.00;102059.59;4982959;28;20841;-70
2022/12/19 02:27:55;;;;;;;17.83;8.17;;;;;;;-5.77;100.00;102055.56;4986421;28;21236;-71
2022/12/19 02:30:50;;;;;;;22.27;8.37;;;;;;;-5.76;100.00;102037.91;4985931;28;20464;-70
2022/12/19 02:33:22;;;;;;;20.00;8.33;;;;;;;-5.79;100.00;102055.47;4975055;28;20464;-69
2022/12/19 02:35:53;;;;;;;16.30;7.90;;;;;;;-5.81;100.00;102048.56;4987705;28;20483;-71
2022/12/19 02:38:26;;;;;;;18.20;9.03;;;;;;;-5.78;100.00;102046.22;4987187;28;20483;-71
2022/12/19 02:40:57;;;;;;;20.03;8.00;;;;;;;-5.71;100.00;102043.28;4985309;28;20464;-71
2022/12/19 02:43:29;;;;;;;19.93;9.27;;;;;;;-5.66;100.00;102047.00;4980297;28;20534;-70
2022/12/19 02:46:01;;;;;;;16.90;8.83;;;;;;;-5.69;100.00;102046.78;4976411;28;20484;-71
2022/12/19 02:48:29;;;;;;;19.00;8.07;;;;;;;-5.70;100.00;102045.00;4984438;28;20461;-70
2022/12/19 02:50:57;;;;;;;19.27;9.13;;;;;;;-5.75;100.00;102052.38;4989892;28;21874;-71
2022/12/19 02:53:24;;;;;;;20.27;8.70;;;;;;;-5.74;100.00;102053.25;4990263;28;20471;-71
2022/12/19 02:56:12;;;;;;;17.77;8.83;;;;;;;-5.74;100.00;102053.25;4985984;28;20476;-70
2022/12/19 02:58:52;;;;;;;17.83;8.83;;;;;;;-5.77;100.00;102059.03;4985962;28;20988;-70
2022/12/19 03:01:35;;;;;;;14.07;7.17;;;;;;;-5.80;100.00;102058.81;4985246;28;20829;-70
2022/12/19 03:04:13;;;;;;;21.43;9.10;;;;;;;-5.79;100.00;102059.69;4986528;28;20472;-70
2022/12/19 03:06:46;;;;;;;24.40;8.73;;;;;;;-5.75;100.00;102046.38;4985647;28;20475;-70
2022/12/19 03:09:17;;;;;;;17.77;8.27;;;;;;;-5.71;100.00;102040.72;5006428;28;20455;-70
2022/12/19 03:11:46;;;;;;;16.47;8.83;;;;;;;-5.64;100.00;102045.41;4985090;28;20534;-69
2022/12/19 03:14:17;;;;;;;16.67;7.53;;;;;;;-5.67;100.00;102047.75;4984854;28;20979;-70
2022/12/19 03:16:45;;;;;;;18.87;8.87;;;;;;;-5.69;100.00;102041.69;4989519;28;20479;-70
2022/12/19 03:19:14;;;;;;;18.53;8.87;;;;;;;-5.70;100.00;102045.00;4990536;28;20464;-71
2022/12/19 03:21:44;;;;;;;23.37;9.47;;;;;;;-5.73;100.00;102040.63;4984258;28;20949;-70
2022/12/19 03:24:12;;;;;;;20.27;9.00;;;;;;;-5.67;100.00;102034.19;4997308;28;20459;-70
2022/12/19 03:26:43;;;;;;;16.87;7.90;;;;;;;-5.70;100.00;102029.78;4988344;28;20573;-71
2022/12/19 03:29:16;;;;;;;17.50;8.80;;;;;;;-5.71;100.00;102031.44;4986511;28;20962;-70
2022/12/19 03:31:46;;;;;;;18.30;9.50;;;;;;;-5.66;100.00;102044.44;4987618;28;20459;-70
2022/12/19 03:34:17;;;;;;;15.77;8.07;;;;;;;-5.65;100.00;102043.63;4988068;28;20452;-70
2022/12/19 03:36:47;;;;;;;16.33;8.53;;;;;;;-5.65;100.00;102046.19;4982608;28;20480;-70
2022/12/19 03:39:16;;;;;;;15.00;7.77;;;;;;;-5.62;100.00;102048.91;4984687;28;20475;-70
2022/12/19 03:44:31;;;;;;;20.97;9.20;;;;;;;-5.57;100.00;102055.19;4984941;28;20466;-70
2022/12/19 03:47:05;;;;;;;16.00;8.33;;;;;;;-5.53;100.00;102056.25;4994547;28;20479;-71
2022/12/19 03:49:32;;;;;;;14.63;7.40;;;;;;;-5.54;100.00;102042.66;4985929;28;20497;-70
2022/12/19 03:52:03;;;;;;;17.77;8.60;;;;;;;-5.53;100.00;102043.53;4984470;28;20466;-71
2022/12/19 03:54:33;;;;;;;15.57;7.80;;;;;;;-5.55;100.00;102040.88;4983448;28;20974;-70
2022/12/19 03:57:05;;;;;;;14.57;7.20;;;;;;;-5.57;100.00;102039.94;4987046;28;20485;-70
2022/12/19 03:59:36;;;;;;;15.77;7.07;;;;;;;-5.55;100.00;102034.94;4992782;28;20444;-71
2022/12/19 04:02:04;;;;;;;15.40;8.23;;;;;;;-5.56;100.00;102033.16;4982461;28;20472;-71
2022/12/19 04:04:36;;;;;;;17.87;7.83;;;;;;;-5.53;100.00;102028.28;4983544;28;20724;-71
2022/12/19 04:07:05;;;;;;;17.70;8.60;;;;;;;-5.56;100.00;102030.63;4985190;28;20987;-71
2022/12/19 04:09:33;;;;;;;17.83;8.03;;;;;;;-5.56;100.00;102025.53;4986664;28;20469;-70
2022/12/19 04:12:04;;;;;;;13.10;7.57;;;;;;;-5.55;100.00;102022.22;4987628;28;20466;-69
2022/12/19 04:14:33;;;;;;;13.63;7.47;;;;;;;-5.58;100.00;102032.19;4988168;28;20465;-70
2022/12/19 04:17:10;;;;;;;19.13;8.20;;;;;;;-5.59;100.00;102033.00;4980033;28;20556;-70
2022/12/19 04:19:43;;;;;;;20.60;7.53;;;;;;;-5.59;100.00;102033.00;4980854;28;20542;-70
2022/12/19 04:22:15;;;;;;;17.50;8.40;;;;;;;-5.54;100.00;102031.59;4985027;28;20978;-70
2022/12/19 04:24:44;;;;;;;12.40;7.97;;;;;;;-5.53;100.00;102026.63;4985014;28;21115;-70
2022/12/19 04:27:12;;;;;;;16.53;8.23;;;;;;;-5.50;100.00;102025.94;4988092;28;20467;-70
2022/12/19 04:29:39;;;;;;;17.70;8.33;;;;;;;-5.44;100.00;102020.34;4983170;28;20459;-71
2022/12/19 04:32:09;;;;;;;13.97;7.50;;;;;;;-5.46;100.00;102004.13;4990490;28;20456;-70
2022/12/19 04:34:35;;;;;;;16.03;7.43;;;;;;;-5.43;100.00;102002.66;4991571;28;20476;-69
2022/12/19 04:37:02;;;;;;;19.80;7.83;;;;;;;-5.40;100.00;102001.94;4988290;28;20479;-70
2022/12/19 04:39:29;;;;;;;11.83;6.87;;;;;;;-5.34;100.00;102005.75;4987453;28;20459;-70
2022/12/19 04:41:55;;;;;;;17.13;8.13;;;;;;;-5.29;100.00;101994.97;4982547;28;20461;-70
2022/12/19 04:44:21;;;;;;;16.77;7.57;;;;;;;-5.30;100.00;101999.19;4981079;28;20457;-71
2022/12/19 04:46:48;;;;;;;16.20;7.40;;;;;;;-5.28;100.00;101991.63;4983018;28;20477;-71
2022/12/19 04:49:16;;;;;;;22.70;8.57;;;;;;;-5.26;100.00;101977.34;4982953;28;20464;-70
2022/12/19 04:51:42;;;;;;;21.47;9.17;;;;;;;-5.24;100.00;101975.78;4984644;28;20465;-71
2022/12/19 04:54:08;;;;;;;18.53;8.63;;;;;;;-5.17;100.00;101985.53;4984636;28;20959;-71
2022/12/19 04:56:35;;;;;;;16.97;7.93;;;;;;;-5.14;100.00;101984.06;4999303;23;20599;-70
2022/12/19 04:59:01;;;;;;;17.60;8.07;;;;;;;-5.11;100.00;101987.56;4997586;28;20857;-70
2022/12/19 05:01:27;;;;;;;23.00;9.43;;;;;;;-5.08;100.00;101990.28;4995063;28;21259;-70
2022/12/19 05:03:54;;;;;;;20.23;9.70;;;;;;;-5.01;100.00;101994.97;4990656;28;20976;-70
2022/12/19 05:06:22;;;;;;;15.90;8.80;;;;;;;-5.01;100.00;101990.75;4998224;28;20481;-71
2022/12/19 05:08:48;;;;;;;17.53;9.37;;;;;;;-4.96;100.00;101988.44;5016357;23;20509;-71
2022/12/19 05:11:16;;;;;;;20.93;9.47;;;;;;;-4.95;100.00;101983.47;5019198;28;20516;-72
2022/12/19 05:13:43;;;;;;;18.57;8.70;;;;;;;-4.93;100.00;101980.13;5019425;28;20468;-72
2022/12/19 05:16:11;;;;;;;14.77;7.73;;;;;;;-4.87;100.00;101989.00;5017740;28;21043;-72
2022/12/19 05:18:38;;;;;;;19.13;9.23;;;;;;;-4.84;100.00;101979.00;5018965;28;20909;-73
2022/12/19 05:21:05;;;;;;;19.30;9.60;;;;;;;-4.77;100.00;101964.97;5016606;28;20498;-71
2022/12/19 05:23:33;;;;;;;20.30;9.27;;;;;;;-4.71;100.00;101974.59;5014928;28;20470;-72
2022/12/19 05:26:02;;;;;;;19.50;8.97;;;;;;;-4.69;100.00;101970.50;5004355;28;20494;-73
2022/12/19 05:28:28;;;;;;;19.03;8.87;;;;;;;-4.66;100.00;101975.75;5018497;28;20992;-72
2022/12/19 05:31:03;;;;;;;20.20;9.50;;;;;;;-4.64;100.00;101977.63;5020452;28;20459;-72
2022/12/19 05:33:29;;;;;;;22.87;9.37;;;;;;;-4.63;100.00;101973.41;5019291;28;20492;-71
2022/12/19 05:35:56;;;;;;;26.33;9.57;;;;;;;-4.60;100.00;101973.56;5018441;28;20492;-72
2022/12/19 05:38:22;;;;;;;18.50;8.30;;;;;;;-4.59;100.00;101977.84;5019190;28;20853;-74
2022/12/19 05:40:52;;;;;;;20.47;9.97;;;;;;;-4.58;100.00;101974.53;5020602;28;20451;-72
2022/12/19 05:43:19;;;;;;;45.17;21.17;;;;;;;-4.58;100.00;101975.41;5016271;28;20462;-74
2022/12/19 05:45:45;;;;;;;32.60;14.77;;;;;;;-4.58;100.00;101969.44;5008880;28;20487;-72
2022/12/19 05:48:12;;;;;;;78.50;35.63;;;;;;;-4.60;100.00;101976.13;5015878;28;20458;-72
2022/12/19 05:50:38;;;;;;;100.47;43.00;;;;;;;-4.63;100.00;101974.25;5018940;28;20458;-72
2022/12/19 05:53:10;;;;;;;67.77;28.47;;;;;;;-4.65;100.00;101973.31;5018811;28;20451;-71
2022/12/19 05:55:36;;;;;;;38.83;17.80;;;;;;;-4.66;100.00;101963.94;5017335;28;20461;-71
2022/12/19 05:58:04;;;;;;;23.10;11.10;;;;;;;-4.69;100.00;101970.50;5019707;28;20489;-72
2022/12/19 06:00:30;;;;;;;46.27;20.60;;;;;;;-4.67;100.00;101968.94;5018575;28;20799;-71
2022/12/19 06:02:57;;;;;;;27.77;12.30;;;;;;;-4.72;100.00;101973.75;5017705;28;20475;-71
2022/12/19 06:05:23;;;;;;;20.33;10.10;;;;;;;-4.76;100.00;101980.31;5013235;28;20992;-74
2022/12/19 06:07:49;;;;;;;19.17;9.23;;;;;;;-4.77;100.00;101964.97;5012991;28;20969;-72
2022/12/19 06:10:16;;;;;;;21.93;10.00;;;;;;;-4.76;100.00;101951.47;5011798;28;20942;-72
2022/12/19 06:12:42;;;;;;;18.13;9.40;;;;;;;-4.78;100.00;101950.50;5016967;28;20461;-74
2022/12/19 06:15:11;;;;;;;20.83;8.73;;;;;;;-4.73;100.00;101944.00;5019952;28;20470;-72
2022/12/19 06:17:37;;;;;;;20.03;9.90;;;;;;;-4.69;100.00;101950.16;5021611;28;20490;-73
2022/12/19 06:20:05;;;;;;;17.60;9.03;;;;;;;-4.68;100.00;101944.25;5016616;28;21035;-72
2022/12/19 06:22:31;;;;;;;16.30;8.30;;;;;;;-4.65;100.00;101946.97;5020335;28;20465;-72
2022/12/19 06:24:58;;;;;;;24.17;10.23;;;;;;;-4.66;100.00;101945.22;5016454;28;20469;-73
2022/12/19 06:27:24;;;;;;;22.13;9.80;;;;;;;-4.67;100.00;101946.03;5018536;28;20480;-72
2022/12/19 06:29:50;;;;;;;20.77;9.43;;;;;;;-4.68;100.00;101944.25;5016669;28;20792;-72
2022/12/19 06:32:19;;;;;;;21.33;9.13;;;;;;;-4.67;100.00;101951.09;5020281;28;20996;-73
2022/12/19 06:34:45;;;;;;;26.13;9.83;;;;;;;-4.65;100.00;101955.47;5016072;28;20838;-73
2022/12/19 06:37:12;;;;;;;22.77;10.03;;;;;;;-4.63;100.00;101958.13;5019755;28;20496;-73
2022/12/19 06:39:39;;;;;;;22.30;9.20;;;;;;;-4.63;100.00;101953.91;5013644;28;20462;-71
2022/12/19 06:42:23;;;;;;;18.97;9.03;;;;;;;-4.61;100.00;101951.44;5022269;28;20969;-73
2022/12/19 06:44:50;;;;;;;22.33;9.07;;;;;;;-4.63;100.00;101953.03;5017891;28;20459;-72
2022/12/19 06:47:19;;;;;;;21.27;10.20;;;;;;;-4.65;100.00;101950.41;5019512;28;21059;-72
2022/12/19 06:49:45;;;;;;;15.40;8.00;;;;;;;-4.65;100.00;101955.47;5021297;28;20464;-73
2022/12/19 06:52:12;;;;;;;24.33;10.00;;;;;;;-4.62;100.00;101947.16;5021793;28;20462;-72
2022/12/19 06:54:38;;;;;;;19.63;9.57;;;;;;;-4.62;100.00;101944.63;5021710;28;20474;-72
2022/12/19 06:57:05;;;;;;;17.53;9.17;;;;;;;-4.60;100.00;101951.53;5023347;28;20491;-72
2022/12/19 06:59:31;;;;;;;21.60;9.63;;;;;;;-4.59;100.00;101940.56;5025315;28;20469;-73
2022/12/19 07:02:05;;;;;;;20.77;9.97;;;;;;;-4.59;100.00;101942.22;5020801;28;20466;-74
2022/12/19 07:04:36;;;;;;;22.67;11.03;;;;;;;-4.58;100.00;101937.22;5014860;28;20451;-74
2022/12/19 07:07:03;;;;;;;21.73;10.40;;;;;;;-4.49;100.00;101946.19;5019880;28;20486;-72
2022/12/19 07:09:30;;;;;;;20.17;9.93;;;;;;;-4.47;100.00;101945.47;5019002;28;20534;-71
2022/12/19 07:11:57;;;;;;;22.53;10.37;;;;;;;-4.44;100.00;101940.53;5023447;28;20497;-71
2022/12/19 07:14:23;;;;;;;21.90;10.80;;;;;;;-4.37;100.00;101940.09;5023383;28;20472;-71
2022/12/19 07:16:52;;;;;;;32.07;14.90;;;;;;;-4.33;100.00;101930.94;5020353;28;20485;-72
2022/12/19 07:19:19;;;;;;;36.20;15.97;;;;;;;-4.31;100.00;101934.47;5021533;28;21255;-72
2022/12/19 07:21:47;;;;;;;47.03;19.37;;;;;;;-4.22;100.00;101931.53;5022306;28;20462;-72
2022/12/19 07:24:14;;;;;;;45.73;18.70;;;;;;;-4.14;100.00;101929.44;5016970;28;21062;-72
2022/12/19 07:26:41;;;;;;;36.53;15.83;;;;;;;-4.11;100.00;101924.50;5019513;28;20492;-73
2022/12/19 07:29:08;;;;;;;37.43;15.87;;;;;;;-4.06;100.00;101930.72;5022792;28;20530;-73
2022/12/19 07:31:35;;;;;;;26.93;14.20;;;;;;;-3.98;100.00;101924.34;5021536;28;20768;-72
2022/12/19 07:34:01;;;;;;;28.30;11.33;;;;;;;-3.91;100.00;101925.56;5037407;28;20455;-73
2022/12/19 07:36:27;;;;;;;23.80;11.00;;;;;;;-3.85;100.00;101933.56;5021939;28;20482;-71
2022/12/19 07:38:56;;;;;;;23.57;11.53;;;;;;;-3.79;100.00;101931.31;5017473;28;20813;-71
2022/12/19 07:41:22;;;;;;;23.80;11.23;;;;;;;-3.72;100.00;101929.97;5022538;28;20818;-71
2022/12/19 07:43:48;;;;;;;25.07;11.07;;;;;;;-3.63;100.00;101921.13;5019418;28;20466;-73
2022/12/19 07:46:15;;;;;;;22.33;10.70;;;;;;;-3.54;100.00;101920.72;5020214;28;20492;-73
2022/12/19 07:48:41;;;;;;;24.50;11.93;;;;;;;-3.51;100.00;101915.81;5024578;28;20475;-72
2022/12/19 07:51:08;;;;;;;23.90;10.73;;;;;;;-3.47;100.00;101916.84;5017618;28;20801;-72
2022/12/19 07:53:34;;;;;;;22.20;11.30;;;;;;;-3.41;100.00;101912.06;5011430;28;20709;-72
2022/12/19 07:56:02;;;;;;;22.30;10.70;;;;;;;-3.35;100.00;101919.16;5015565;28;20470;-71
2022/12/19 07:58:28;;;;;;;27.73;11.87;;;;;;;-3.27;100.00;101913.63;5016244;28;20242;-72
2022/12/19 08:00:55;;;;;;;27.20;11.43;;;;;;;-3.18;100.00;101907.22;5018168;28;20211;-72
2022/12/19 08:03:22;;;;;;;21.40;10.57;;;;;;;-3.10;100.00;101913.59;5020801;28;20283;-72
2022/12/19 08:05:49;;;;;;;27.10;11.70;;;;;;;-3.06;100.00;101911.28;5018974;28;20705;-73
2022/12/19 08:08:15;;;;;;;22.20;11.20;;;;;;;-2.96;100.00;101914.28;5016796;28;20196;-72
2022/12/19 08:10:42;;;;;;;19.37;10.17;;;;;;;-2.89;100.00;101917.22;5017848;28;20213;-72
2022/12/19 08:13:09;;;;;;;29.17;12.80;;;;;;;-2.82;100.00;101927.75;5021516;28;20715;-72
2022/12/19 08:15:36;;;;;;;23.13;12.03;;;;;;;-2.77;100.00;101926.28;5022617;28;20196;-73
2022/12/19 08:18:02;;;;;;;24.77;11.30;;;;;;;-2.70;100.00;101941.97;5021439;28;21556;-72
2022/12/19 08:20:29;;;;;;;25.03;12.03;;;;;;;-2.64;100.00;101937.97;5025043;28;21878;-72
2022/12/19 08:22:55;;;;;;;27.27;12.37;;;;;;;-2.59;100.00;101937.38;5019167;28;20576;-72
2022/12/19 08:25:22;;;;;;;24.03;11.30;;;;;;;-2.51;100.00;101933.53;5018898;28;20653;-72
2022/12/19 08:27:48;;;;;;;25.50;11.90;;;;;;;-2.44;100.00;101931.28;5018575;28;20192;-72
2022/12/19 08:30:16;;;;;;;22.43;10.40;;;;;;;-2.40;100.00;101938.28;5017363;28;20204;-73
2022/12/19 08:32:44;;;;;;;25.67;10.90;;;;;;;-2.35;100.00;101929.16;5021612;28;20683;-71
2022/12/19 08:35:10;;;;;;;24.10;11.97;;;;;;;-2.31;100.00;101933.59;5015102;28;20211;-73
2022/12/19 08:37:36;;;;;;;22.53;11.57;;;;;;;-2.28;100.00;101929.53;5021030;28;20230;-72
2022/12/19 08:40:03;;;;;;;24.50;11.90;;;;;;;-2.22;100.00;101921.25;5014934;28;20212;-73
2022/12/19 08:42:30;;;;;;;28.20;12.23;;;;;;;-2.17;100.00;101919.78;5015155;28;20233;-73
2022/12/19 08:44:56;;;;;;;22.37;10.80;;;;;;;-2.13;100.00;101921.72;5022113;28;20603;-73
2022/12/19 08:47:24;;;;;;;21.77;11.23;;;;;;;-2.07;100.00;101921.13;5019081;28;20219;-72
2022/12/19 08:49:50;;;;;;;27.37;12.83;;;;;;;-2.04;100.00;101898.25;5015635;28;20212;-73
2022/12/19 08:52:17;;;;;;;22.03;10.03;;;;;;;-2.02;100.00;101901.75;5020806;28;20205;-72
2022/12/19 08:54:44;;;;;;;53.00;21.93;;;;;;;-1.98;100.00;101898.53;5015823;28;20648;-72
2022/12/19 08:57:10;;;;;;;40.17;16.17;;;;;;;-1.94;100.00;101899.53;5014468;28;20600;-72
2022/12/19 08:59:37;;;;;;;35.27;17.10;;;;;;;-1.92;100.00;101887.69;5016488;28;20209;-73
2022/12/19 09:02:03;;;;;;;32.13;17.20;;;;;;;-1.92;100.00;101872.34;5021248;28;20201;-72
2022/12/19 09:04:31;;;;;;;35.40;16.90;;;;;;;-1.86;100.00;101877.75;5018555;28;20201;-73
2022/12/19 09:06:57;;;;;;;26.30;13.87;;;;;;;-1.86;100.00;101882.88;5022076;28;20219;-72
2022/12/19 09:09:24;;;;;;;28.87;12.67;;;;;;;-1.83;100.00;101895.78;5016245;28;20216;-72
2022/12/19 09:11:50;;;;;;;24.37;12.20;;;;;;;-1.81;100.00;101893.28;5019388;28;20289;-72
2022/12/19 09:14:17;;;;;;;21.77;11.07;;;;;;;-1.80;100.00;101887.38;5022021;28;20211;-72
2022/12/19 09:16:43;;;;;;;19.57;10.00;;;;;;;-1.76;100.00;101889.25;5025618;28;20224;-72
2022/12/19 09:19:14;;;;;;;29.50;12.93;;;;;;;-1.75;100.00;101891.88;5018157;28;20221;-72
2022/12/19 09:21:42;;;;;;;25.47;11.53;;;;;;;-1.73;100.00;101895.38;5013499;28;20210;-72
2022/12/19 09:24:09;;;;;;;24.70;11.00;;;;;;;-1.72;100.00;101886.91;5019140;28;20208;-74
2022/12/19 09:26:37;;;;;;;28.67;13.47;;;;;;;-1.67;100.00;101889.69;5017889;28;20219;-71
2022/12/19 09:29:04;;;;;;;23.57;10.97;;;;;;;-1.62;100.00;101887.31;5018301;28;20204;-72
2022/12/19 09:31:31;;;;;;;19.63;11.20;;;;;;;-1.58;100.00;101871.31;5014808;28;20204;-73
2022/12/19 09:33:57;;;;;;;22.80;11.20;;;;;;;-1.55;100.00;101863.75;5017243;28;20211;-72
2022/12/19 09:36:25;;;;;;;26.47;12.23;;;;;;;-1.50;100.00;101877.59;5021534;28;20719;-72
2022/12/19 09:38:55;;;;;;;24.53;11.87;;;;;;;-1.46;100.00;101868.38;5022560;28;20227;-73
2022/12/19 09:41:51;;;;;;;19.90;10.40;;;;;;;-1.40;100.00;101853.31;5022951;28;20206;-72
2022/12/19 09:44:31;;;;;;;22.90;11.37;;;;;;;-1.38;100.00;101847.44;5017423;28;20200;-73
2022/12/19 09:47:00;;;;;;;31.33;14.73;;;;;;;-1.38;100.00;101844.00;5016743;28;20235;-72
2022/12/19 09:49:29;;;;;;;41.43;18.40;;;;;;;-1.37;100.00;101836.41;5022214;28;20403;-72
2022/12/19 09:52:00;;;;;;;53.27;20.00;;;;;;;-1.30;100.00;101816.16;5014952;28;20227;-72
2022/12/19 09:54:37;;;;;;;30.73;14.83;;;;;;;-1.28;100.00;101804.34;5013647;28;20205;-71
2022/12/19 09:57:06;;;;;;;29.60;15.03;;;;;;;-1.31;100.00;101802.50;5019657;28;20688;-72
2022/12/19 09:59:38;;;;;;;22.13;11.80;;;;;;;-1.26;100.00;101805.25;5025427;28;20609;-72
2022/12/19 10:02:20;;;;;;;21.30;10.77;;;;;;;-1.26;100.00;101816.38;5022558;28;20204;-72
2022/12/19 10:04:51;;;;;;;24.70;11.67;;;;;;;-1.20;100.00;101815.72;5015982;28;20206;-72
2022/12/19 10:07:20;;;;;;;24.03;11.90;;;;;;;-1.18;100.00;101815.00;5015941;28;20220;-72
2022/12/19 10:09:47;;;;;;;24.20;11.27;;;;;;;-1.13;100.00;101812.59;5017982;28;20212;-72
2022/12/19 10:12:26;;;;;;;26.73;11.40;;;;;;;-1.09;100.00;101811.03;5016316;28;20211;-73
2022/12/19 10:15:01;;;;;;;25.17;11.17;;;;;;;-1.06;100.00;101799.25;5018471;28;20204;-73
2022/12/19 10:17:37;;;;;;;22.43;10.60;;;;;;;-0.99;100.00;101792.69;5023831;28;20216;-72
2022/12/19 10:20:19;;;;;;;26.10;10.87;;;;;;;-0.94;100.00;101798.88;5024258;28;20202;-72
2022/12/19 10:22:56;;;;;;;21.93;10.80;;;;;;;-0.88;100.00;101798.22;5029320;28;20207;-74
2022/12/19 10:25:53;;;;;;;19.20;10.03;;;;;;;-0.81;100.00;101789.97;5017368;28;20199;-73
2022/12/19 10:28:36;;;;;;;26.80;11.63;;;;;;;-0.78;100.00;101773.03;5020414;28;20691;-72
2022/12/19 10:31:11;;;;;;;19.90;10.80;;;;;;;-0.69;100.00;101781.91;5026204;28;20200;-72
2022/12/19 10:33:44;;;;;;;20.33;10.03;;;;;;;-0.66;100.00;101776.91;5022536;28;20204;-72
2022/12/19 10:36:11;;;;;;;23.73;10.63;;;;;;;-0.62;100.00;101782.19;5026909;28;20299;-72
2022/12/19 10:38:47;;;;;;;22.23;11.83;;;;;;;-0.57;100.00;101783.22;5023926;28;20218;-71
2022/12/19 10:41:18;;;;;;;21.53;10.13;;;;;;;-0.53;100.00;101773.97;5021751;28;20597;-72
2022/12/19 10:43:54;;;;;;;24.73;12.07;;;;;;;-0.48;100.00;101774.16;5025951;28;20347;-72
2022/12/19 10:46:28;;;;;;;27.40;12.10;;;;;;;-0.42;100.00;101771.84;5020361;28;20236;-72
2022/12/19 10:48:55;;;;;;;23.73;11.33;;;;;;;-0.39;100.00;101775.38;5018000;28;20644;-74
2022/12/19 10:51:23;;;;;;;20.63;10.70;;;;;;;-0.34;100.00;101767.84;5023264;28;20521;-73
2022/12/19 10:53:54;;;;;;;25.07;11.23;;;;;;;-0.28;100.00;101762.06;5025098;28;20201;-72
2022/12/19 10:56:23;;;;;;;25.97;10.70;;;;;;;-0.27;100.00;101762.13;5040509;22;21583;-74
2022/12/19 10:58:56;;;;;;;20.73;10.73;;;;;;;-0.24;100.00;101753.69;5018023;28;20233;-73
2022/12/19 11:01:25;;;;;;;22.00;10.77;;;;;;;-0.20;100.00;101752.97;5019753;28;20723;-73
2022/12/19 11:04:10;;;;;;;20.70;10.37;;;;;;;-0.16;100.00;101747.13;5016471;28;20288;-74
2022/12/19 11:06:45;;;;;;;21.97;10.37;;;;;;;-0.15;100.00;101740.31;5015019;28;20210;-73
2022/12/19 11:09:24;;;;;;;23.67;10.97;;;;;;;-0.14;100.00;101745.50;5018993;28;20219;-74
2022/12/19 11:11:57;;;;;;;22.80;11.77;;;;;;;-0.08;100.00;101743.16;5016869;23;20709;-71
2022/12/19 11:14:27;;;;;;;25.43;11.43;;;;;;;-0.03;100.00;101733.06;4995371;28;20212;-70
2022/12/19 11:16:53;;;;;;;22.47;11.33;;;;;;;-0.02;100.00;101735.69;5003535;28;21022;-71
2022/12/19 11:19:24;;;;;;;25.50;12.90;;;;;;;0.03;100.00;101740.09;5005422;28;20562;-71